Latest Coastal Weather Observations for King Island Airport

IDT60701

Issued at 4:22 pm EDT Tuesday 28 February 2017 (issued every 10 minutes, with the page automatically refreshed every 10 minutes)

About coastal observations | Map of coastal stations | Coastal observations for TAS | Marine services | Other Formats
Station Details ID: 098017 Name: KING ISLAND AIRPORT Lat: -39.88 Lon: 143.88 Height: 37.0 m
Data from the previous 72 hours. | See also: Recent months at King Island Airport
Date/Time
EDT
Temp
°C
Wind Pressure Rain since
9am
mm
Weather Cloud Vis
km
Sea
Height
m
Swell
Dir  Spd
kts
Gust
kts
hPa Trend Height
m
Period
s
Dir
28/04:00pm 23.5 E 15 18 1021.1 - 0.0 - - 10 - - - -
28/03:30pm 23.5 E 17 20 1021.2 - 0.0 - - 10 - - - -
28/03:00pm 24.0 ENE 16 19 1021.3 - 0.0 - - 10 - - - -
28/02:30pm 24.2 E 15 20 1021.5 - 0.0 - - 10 - - - -
28/02:00pm 24.5 E 15 18 1021.6 - 0.0 - - 10 - - - -
28/01:30pm 23.6 ENE 16 20 1021.8 - 0.0 - - 10 - - - -
28/01:00pm 23.3 ENE 16 21 1021.8 - 0.0 - - 10 - - - -
28/12:30pm 23.7 ENE 16 20 1021.9 - 0.0 - - 10 - - - -
28/12:00pm 23.3 E 16 20 1022.2 - 0.0 - - 10 - - - -
28/11:30am 22.6 E 17 21 1022.2 - 0.0 - - 10 - - - -
28/11:00am 21.5 ENE 17 21 1022.3 - 0.0 - - 10 - - - -
28/10:30am 21.3 E 15 21 1022.0 - 0.0 - - 10 - - - -
28/10:01am 20.3 E 17 21 1022.0 - 0.0 - Partly cloudy 10 - - - -
28/10:00am 20.1 ENE 17 21 1022.1 - 0.0 - Partly cloudy 10 - - - -
28/09:30am 19.1 ENE 17 22 1022.1 - 0.0 - Cloudy 10 - - - -
28/09:00am 18.1 E 17 22 1022.0 - 0.0 - Cloudy 10 - - - -
28/08:30am 17.6 ENE 16 21 1021.9 - 0.0 - Cloudy 9 - - - -
28/08:00am 17.0 E 14 18 1021.8 - 0.0 - Cloudy 7 - - - -
28/07:30am 16.9 E 15 19 1021.6 - 0.0 - Cloudy 7 - - - -
28/07:00am 16.6 E 19 24 1021.3 - 0.0 - Cloudy 7 - - - -
28/06:30am 16.6 E 15 20 1021.2 - 0.0 - Cloudy 6 - - - -
28/06:08am 16.6 E 15 19 1021.1 - 0.0 - Cloudy 6 - - - -
28/06:00am 16.7 E 15 21 1021.1 - 0.0 - Cloudy 6 - - - -
28/05:53am 16.6 E 14 21 1021.2 - 0.0 - Cloudy 5 - - - -
28/05:51am 16.7 E 13 19 1021.2 - 0.0 - Cloudy 6 - - - -
28/05:36am 16.7 E 14 18 1021.1 - 0.0 - Cloudy 5 - - - -
28/05:30am 16.7 E 13 17 1021.1 - 0.0 - Cloudy 6 - - - -
28/05:00am 16.9 E 13 17 1021.1 - 0.0 - Cloudy 7 - - - -
28/04:30am 17.0 E 15 20 1021.2 - 0.0 - Cloudy 7 - - - -
28/04:00am 17.1 E 15 20 1021.3 - 0.0 - Cloudy 7 - - - -
28/03:30am 17.1 E 15 19 1021.5 - 0.0 - Cloudy 7 - - - -
28/03:00am 17.0 E 15 19 1021.6 - 0.0 - Cloudy 6 - - - -
28/02:30am 16.9 E 16 20 1021.6 - 0.0 - Cloudy 6 - - - -
28/02:00am 16.8 E 15 18 1021.9 - 0.0 - Partly cloudy 7 - - - -
28/01:30am 16.9 E 15 18 1022.0 - 0.0 - Partly cloudy 7 - - - -
28/01:18am 16.8 E 15 19 1022.0 - 0.0 - Partly cloudy 7 - - - -
28/01:00am 16.9 E 15 19 1022.0 - 0.0 - Partly cloudy 7 - - - -
28/12:30am 16.8 E 14 17 1021.9 - 0.0 - Partly cloudy 7 - - - -
28/12:19am 16.9 E 15 19 1021.9 - 0.0 - Partly cloudy 7 - - - -
28/12:00am 16.9 E 14 18 1022.0 - 0.0 - Partly cloudy 8 - - - -
 
Date/Time
EDT
Temp
°C
Wind Pressure Rain since
9am
mm
Weather Cloud Vis
km
Sea
Height
m
Swell
Dir  Spd
kts
Gust
kts
hPa Trend Height
m
Period
s
Dir
27/11:30pm 16.9 E 15 19 1022.1 - 0.0 - Partly cloudy 8 - - - -
27/11:19pm 16.9 E 15 18 1022.1 - 0.0 - Partly cloudy 8 - - - -
27/11:00pm 16.9 E 15 19 1022.1 - 0.0 - Partly cloudy 8 - - - -
27/10:30pm 16.9 E 15 19 1022.1 - 0.0 - - 8 - - - -
27/10:00pm 17.0 E 14 18 1022.2 - 0.0 - - 9 - - - -
27/09:30pm 17.0 E 15 19 1022.0 - 0.0 - - 9 - - - -
27/09:00pm 17.2 E 14 17 1022.0 - 0.0 - - 9 - - - -
27/08:30pm 17.3 E 14 18 1022.0 - 0.0 - - 9 - - - -
27/08:00pm 17.8 E 15 18 1021.9 - 0.0 - - 10 - - - -
27/07:30pm 18.8 E 16 20 1021.7 - 0.0 - - 10 - - - -
27/07:00pm 19.7 E 17 21 1021.5 - 0.0 - - 10 - - - -
27/06:30pm 21.1 E 15 21 1021.5 - 0.0 - - 10 - - - -
27/06:00pm 21.1 E 17 21 1021.5 - 0.0 - - 10 - - - -
27/05:30pm 21.3 E 18 23 1021.5 - 0.0 - - 10 - - - -
27/05:00pm 21.7 E 17 22 1021.6 - 0.0 - - 10 - - - -
27/04:30pm 22.7 E 18 22 1021.7 - 0.0 - - 10 - - - -
27/04:00pm 22.0 E 17 21 1021.8 - 0.0 - - 10 - - - -
27/03:30pm 22.3 ENE 17 21 1021.9 - 0.0 - - 10 - - - -
27/03:00pm 22.9 ENE 17 22 1022.1 - 0.0 Rain - 10 - - - -
27/02:30pm 22.1 E 17 24 1022.4 - 0.0 - - 10 - - - -
27/02:00pm 22.3 E 17 21 1022.6 - 0.0 - - 10 - - - -
27/01:30pm 22.1 E 18 22 1022.7 - 0.0 - - 10 - - - -
27/01:00pm 22.1 E 19 25 1022.7 - 0.0 - Partly cloudy 10 - - - -
27/12:30pm 21.1 E 20 28 1022.9 - 0.0 - Partly cloudy 10 - - - -
27/12:29pm 20.8 E 20 28 1023.0 - 0.0 - Partly cloudy 10 - - - -
27/12:06pm 21.1 E 19 26 1023.1 - 0.0 - Partly cloudy 10 - - - -
27/12:00pm 21.2 E 20 26 1023.1 - 0.0 - Partly cloudy 10 - - - -
27/11:30am 21.4 ENE 18 26 1023.2 - 0.0 - Partly cloudy 10 - - - -
27/11:00am 20.0 E 21 28 1023.4 - 0.0 - Partly cloudy 10 - - - -
27/10:30am 20.0 ENE 18 27 1023.5 - 0.0 - Partly cloudy 10 - - - -
27/10:00am 19.2 ENE 18 26 1023.5 - 0.0 - Cloudy 10 - - - -
27/09:30am 18.8 ENE 18 25 1023.4 - 0.0 - Cloudy 10 - - - -
27/09:00am 18.1 ENE 17 25 1023.4 - 0.0 - Cloudy 10 - - - -
27/08:30am 17.2 E 17 23 1023.1 - 0.0 - Cloudy 10 - - - -
27/08:04am 16.6 E 17 21 1022.8 - 0.0 - Partly cloudy 10 - - - -
27/08:00am 16.5 E 17 21 1022.8 - 0.0 - Partly cloudy 10 - - - -
27/07:30am 16.0 E 16 19 1022.6 - 0.0 - - 10 - - - -
27/07:00am 15.8 E 15 19 1022.5 - 0.0 - - 10 - - - -
27/06:30am 15.7 E 15 20 1022.3 - 0.0 - - 10 - - - -
27/06:00am 15.7 E 16 19 1022.1 - 0.0 - - 10 - - - -
27/05:30am 15.8 E 15 18 1022.0 - 0.0 - - 10 - - - -
27/05:00am 15.7 E 15 20 1021.9 - 0.0 - - 10 - - - -
27/04:30am 15.7 E 16 19 1021.9 - 0.0 - - 10 - - - -
27/04:00am 15.9 E 15 20 1022.0 - 0.0 - - 10 - - - -
27/03:30am 15.9 E 17 20 1022.1 - 0.0 - - 10 - - - -
27/03:00am 15.9 E 17 21 1022.3 - 0.0 - - 10 - - - -
27/02:30am 16.0 E 16 21 1022.3 - 0.0 - - 10 - - - -
27/02:00am 16.0 E 15 19 1022.4 - 0.0 - - 10 - - - -
27/01:30am 16.0 E 15 20 1022.6 - 0.0 - - 10 - - - -
27/01:00am 16.0 E 15 21 1022.7 - 0.0 - - 10 - - - -
27/12:30am 16.0 E 16 19 1022.9 - 0.0 - - 10 - - - -
27/12:00am 16.3 E 16 21 1023.0 - 0.0 - - 10 - - - -
 
Date/Time
EDT
Temp
°C
Wind Pressure Rain since
9am
mm
Weather Cloud Vis
km
Sea
Height
m
Swell
Dir  Spd
kts
Gust
kts
hPa Trend Height
m
Period
s
Dir
26/11:30pm 16.2 E 16 21 1023.2 - 0.0 - - 10 - - - -
26/11:00pm 16.3 E 16 20 1023.2 - 0.0 - - 10 - - - -
26/10:30pm 16.2 E 17 22 1023.1 - 0.0 - - 10 - - - -
26/10:00pm 16.3 E 17 22 1023.2 - 0.0 - - 10 - - - -
26/09:30pm 16.4 E 16 21 1023.1 - 0.0 - - 10 - - - -
26/09:00pm 16.3 E 17 25 1022.7 - 0.0 - - 10 - - - -
26/08:30pm 16.6 E 17 22 1022.4 - 0.0 - - 10 - - - -
26/08:00pm 17.0 E 19 27 1022.2 - 0.0 - - 10 - - - -
26/07:30pm 17.6 E 19 29 1022.2 - 0.0 - - 10 - - - -
26/07:14pm 17.9 E 19 29 1022.2 - 0.0 - - 10 - - - -
26/07:00pm 18.2 E 22 28 1022.1 - 0.0 - - 10 - - - -
26/06:30pm 18.6 E 22 29 1022.0 - 0.0 - - 10 - - - -
26/06:01pm 19.4 E 21 31 1021.9 - 0.0 - - 10 - - - -
26/06:00pm 19.1 E 22 30 1021.9 - 0.0 - - 10 - - - -
26/05:55pm 19.5 E 22 32 1021.9 - 0.0 - - 10 - - - -
26/05:30pm 19.8 E 23 31 1021.8 - 0.0 - - 10 - - - -
26/05:08pm 19.8 E 22 32 1021.7 - 0.0 - - 10 - - - -
26/05:00pm 19.6 E 23 31 1021.7 - 0.0 - - 10 - - - -
26/04:40pm 20.0 E 23 34 1021.7 - 0.0 - - 10 - - - -
26/04:30pm 20.5 E 24 30 1021.8 - 0.0 - - 10 - - - -
26/04:18pm 20.4 E 22 32 1021.9 - 0.0 - - 10 - - - -
26/04:00pm 20.1 E 23 32 1022.1 - 0.0 - - 10 - - - -
26/03:30pm 20.3 E 21 30 1022.3 - 0.0 - - 10 - - - -
26/03:03pm 20.7 E 22 32 1022.4 - 0.0 - Partly cloudy 10 - - - -
26/03:00pm 20.8 E 23 32 1022.4 - 0.0 - Mostly clear 10 - - - -
26/02:52pm 20.5 E 21 32 1022.5 - 0.0 - Partly cloudy 10 - - - -
26/02:30pm 20.6 E 23 31 1022.9 - 0.0 - Partly cloudy 10 - - - -
26/02:01pm 20.1 E 21 31 1023.1 - 0.0 - Partly cloudy 10 - - - -
26/02:00pm 20.4 E 21 29 1023.1 - 0.0 - Partly cloudy 10 - - - -
26/01:30pm 20.5 E 21 29 1023.3 - 0.0 - Partly cloudy 10 - - - -
26/01:00pm 21.1 E 22 32 1023.3 - 0.0 - - 10 - - - -
26/12:57pm 20.1 E 21 32 1023.3 - 0.0 - - 10 - - - -
26/12:30pm 20.1 E 21 29 1023.8 - 0.0 - Partly cloudy 10 - - - -
26/12:00pm 19.9 E 21 28 1024.1 - 0.0 - Partly cloudy 10 - - - -
26/11:30am 19.9 E 21 29 1024.2 - 0.0 - Partly cloudy 10 - - - -
26/11:00am 20.1 E 19 26 1024.5 - 0.0 - Partly cloudy 10 - - - -
26/10:30am 18.4 E 20 28 1024.5 - 0.0 - Partly cloudy 10 - - - -
26/10:00am 19.0 E 20 28 1024.4 - 0.0 - Partly cloudy 10 - - - -
26/09:30am 18.3 E 19 23 1024.3 - 0.0 - Partly cloudy 10 - - - -
26/09:00am 17.6 E 16 22 1024.3 - 0.0 - Partly cloudy 10 - - - -
26/08:30am 16.5 E 12 16 1024.3 - 0.0 - Cloudy 10 - - - -
26/08:00am 15.5 E 10 13 1024.2 - 0.0 - Cloudy 10 - - - -
26/07:30am 14.0 E 9 11 1024.1 - 0.0 - Partly cloudy 10 - - - -
26/07:00am 13.8 E 11 13 1023.8 - 0.0 - - 10 - - - -
26/06:30am 14.0 E 10 13 1023.6 - 0.0 - - 10 - - - -
26/06:00am 14.0 ESE 9 12 1023.4 - 0.0 - - 10 - - - -
26/05:30am 14.2 ESE 9 10 1023.2 - 0.0 - - 10 - - - -
26/05:00am 13.7 E 9 11 1022.9 - 0.0 - Partly cloudy 10 - - - -
26/04:30am 13.2 ESE 7 9 1023.2 - 0.0 - Partly cloudy 10 - - - -
26/04:00am 13.7 SE 7 8 1023.7 - 0.0 - - 10 - - - -
26/03:30am 13.6 SE 6 7 1023.5 - 0.0 - Partly cloudy 10 - - - -
26/03:00am 13.5 SE 6 8 1023.6 - 0.0 - Mostly cloudy 10 - - - -
26/02:30am 13.6 SE 7 8 1023.9 - 0.0 - Partly cloudy 10 - - - -
26/02:00am 14.1 SE 7 9 1024.4 - 0.0 - Partly cloudy 10 - - - -
26/01:30am 14.5 SE 9 10 1024.8 - 0.0 - Partly cloudy 10 - - - -
26/01:00am 14.9 SSE 7 9 1025.5 - 0.0 - Partly cloudy 10 - - - -
26/12:30am 15.1 SSE 8 10 1025.6 - 0.0 - Partly cloudy 10 - - - -
26/12:00am 15.0 SSE 6 9 1025.5 - 0.0 - Cloudy 10 - - - -
 
Date/Time
EDT
Temp
°C
Wind Pressure Rain since
9am
mm
Weather Cloud Vis
km
Sea
Height
m
Swell
Dir  Spd
kts
Gust
kts
hPa Trend Height
m
Period
s
Dir
25/11:30pm 15.3 SE 6 8 1025.5 - 0.0 - Cloudy 10 - - - -
25/11:00pm 15.1 SE 5 7 1025.7 - 0.0 - Partly cloudy 10 - - - -
25/10:30pm 15.1 SE 5 7 1025.6 - 0.0 - Partly cloudy 10 - - - -
25/10:00pm 14.9 ESE 7 8 1025.5 - 0.0 - Partly cloudy 10 - - - -
25/09:49pm 14.9 ESE 6 7 1025.5 - 0.0 - Partly cloudy 10 - - - -
25/09:33pm 14.9 E 7 9 1025.3 - 0.0 - Partly cloudy 5 - - - -
25/09:30pm 15.0 E 7 9 1025.4 - 0.0 - Partly cloudy 9 - - - -
25/09:00pm 15.2 E 10 13 1025.2 - 0.0 - Mostly cloudy 10 - - - -
25/08:30pm 15.4 E 11 16 1025.1 - 0.0 - Partly cloudy 10 - - - -
25/08:00pm 15.7 E 10 15 1024.7 - 0.0 - Partly cloudy 10 - - - -
25/07:56pm 15.7 E 11 16 1024.7 - 0.0 - Partly cloudy 10 - - - -
25/07:40pm 16.2 E 15 18 1024.7 - 0.0 - Partly cloudy 10 - - - -
25/07:30pm 16.7 ESE 11 15 1024.7 - 0.0 - Partly cloudy 10 - - - -
25/07:00pm 17.1 ESE 13 18 1024.6 - 0.0 - Partly cloudy 10 - - - -
25/06:30pm 17.1 ESE 15 21 1024.2 - 0.0 - Partly cloudy 10 - - - -
25/06:00pm 18.4 ESE 15 21 1024.2 - 0.0 - Partly cloudy 10 - - - -
25/05:30pm 18.4 ESE 15 21 1024.3 - 0.0 - Partly cloudy 10 - - - -
25/05:00pm 19.4 ESE 14 19 1024.3 - 0.0 - Partly cloudy 10 - - - -
25/04:30pm 18.5 SE 13 18 1024.3 - 0.0 - Partly cloudy 10 - - - -

Other Formats:

Comma delimited format used in spreadsheet applications
http://www.bom.gov.au/fwo/IDT60701/IDT60701.94850.axf

JavaScript Object Notation format (JSON) in row-major order
http://www.bom.gov.au/fwo/IDT60701/IDT60701.94850.json